sensor_id;sensor_type;location;lat;lon;timestamp;pressure;altitude;pressure_sealevel;temperature;humidity
25759;BME280;13604;52.496;13.456;2023-04-30T00:01:57;101570.75;;;6.35;79.19
25759;BME280;13604;52.496;13.456;2023-04-30T00:04:23;101569.31;;;6.38;78.62
25759;BME280;13604;52.496;13.456;2023-04-30T00:06:48;101578.06;;;6.29;78.78
25759;BME280;13604;52.496;13.456;2023-04-30T00:09:14;101586.94;;;6.32;79.43
25759;BME280;13604;52.496;13.456;2023-04-30T00:11:39;101606.44;;;6.39;79.24
25759;BME280;13604;52.496;13.456;2023-04-30T00:14:04;101577.47;;;6.21;79.42
25759;BME280;13604;52.496;13.456;2023-04-30T00:16:30;101588.47;;;6.18;80.01
25759;BME280;13604;52.496;13.456;2023-04-30T00:18:55;101615.06;;;6.28;79.94
25759;BME280;13604;52.496;13.456;2023-04-30T00:21:20;101596.44;;;6.10;79.43
25759;BME280;13604;52.496;13.456;2023-04-30T00:23:45;101587.56;;;6.06;79.25
25759;BME280;13604;52.496;13.456;2023-04-30T00:26:11;101617.97;;;6.20;79.76
25759;BME280;13604;52.496;13.456;2023-04-30T00:28:36;101611.53;;;6.15;79.74
25759;BME280;13604;52.496;13.456;2023-04-30T00:31:01;101601.81;;;6.01;79.89
25759;BME280;13604;52.496;13.456;2023-04-30T00:33:27;101618.34;;;6.03;79.98
25759;BME280;13604;52.496;13.456;2023-04-30T00:35:52;101611.53;;;5.93;80.08
25759;BME280;13604;52.496;13.456;2023-04-30T00:38:17;101617.69;;;5.95;79.93
25759;BME280;13604;52.496;13.456;2023-04-30T00:40:43;101601.50;;;5.86;80.49
25759;BME280;13604;52.496;13.456;2023-04-30T00:43:08;101605.28;;;5.79;80.72
25759;BME280;13604;52.496;13.456;2023-04-30T00:45:34;101627.94;;;5.94;79.97
25759;BME280;13604;52.496;13.456;2023-04-30T00:47:59;101633.53;;;5.88;80.81
25759;BME280;13604;52.496;13.456;2023-04-30T00:50:25;101635.88;;;5.85;81.19
25759;BME280;13604;52.496;13.456;2023-04-30T00:52:50;101641.72;;;5.82;80.62
25759;BME280;13604;52.496;13.456;2023-04-30T00:55:16;101614.53;;;5.65;80.92
25759;BME280;13604;52.496;13.456;2023-04-30T00:57:41;101629.91;;;5.64;80.73
25759;BME280;13604;52.496;13.456;2023-04-30T01:00:07;101634.97;;;5.62;80.99
25759;BME280;13604;52.496;13.456;2023-04-30T01:02:35;101651.25;;;5.61;80.96
25759;BME280;13604;52.496;13.456;2023-04-30T01:05:02;101654.88;;;5.63;81.73
25759;BME280;13604;52.496;13.456;2023-04-30T01:07:28;101651.31;;;5.51;82.08
25759;BME280;13604;52.496;13.456;2023-04-30T01:09:54;101639.97;;;5.39;82.06
25759;BME280;13604;52.496;13.456;2023-04-30T01:12:25;101646.78;;;5.48;81.49
25759;BME280;13604;52.496;13.456;2023-04-30T01:20:27;101634.22;;;5.21;81.90
25759;BME280;13604;52.496;13.456;2023-04-30T01:23:05;101675.84;;;5.46;82.53
25759;BME280;13604;52.496;13.456;2023-04-30T01:25:59;101650.50;;;5.30;82.27
25759;BME280;13604;52.496;13.456;2023-04-30T01:28:30;101662.84;;;5.34;82.60
25759;BME280;13604;52.496;13.456;2023-04-30T01:30:57;101675.91;;;5.35;82.52
25759;BME280;13604;52.496;13.456;2023-04-30T01:33:22;101652.72;;;5.15;82.88
25759;BME280;13604;52.496;13.456;2023-04-30T01:39:19;101683.41;;;5.32;82.26
25759;BME280;13604;52.496;13.456;2023-04-30T01:42:07;101682.00;;;5.26;83.15
25759;BME280;13604;52.496;13.456;2023-04-30T01:45:03;101677.50;;;5.23;83.40
25759;BME280;13604;52.496;13.456;2023-04-30T01:47:54;101684.19;;;5.21;83.84
25759;BME280;13604;52.496;13.456;2023-04-30T01:52:55;101683.34;;;5.10;85.12
25759;BME280;13604;52.496;13.456;2023-04-30T01:55:39;101690.41;;;5.13;85.50
25759;BME280;13604;52.496;13.456;2023-04-30T01:58:09;101687.47;;;4.98;86.45
25759;BME280;13604;52.496;13.456;2023-04-30T02:00:34;101700.25;;;5.07;86.50
25759;BME280;13604;52.496;13.456;2023-04-30T02:03:00;101698.84;;;5.00;87.13
25759;BME280;13604;52.496;13.456;2023-04-30T02:05:25;101670.34;;;4.78;87.05
25759;BME280;13604;52.496;13.456;2023-04-30T02:07:51;101710.22;;;4.92;87.75
25759;BME280;13604;52.496;13.456;2023-04-30T02:10:19;101699.38;;;4.86;87.88
25759;BME280;13604;52.496;13.456;2023-04-30T02:12:45;101708.41;;;4.91;87.80
25759;BME280;13604;52.496;13.456;2023-04-30T02:15:10;101719.50;;;4.90;88.35
25759;BME280;13604;52.496;13.456;2023-04-30T02:17:35;101709.59;;;4.74;88.24
25759;BME280;13604;52.496;13.456;2023-04-30T02:20:01;101713.97;;;4.85;87.95
25759;BME280;13604;52.496;13.456;2023-04-30T02:22:26;101719.13;;;4.85;87.66
25759;BME280;13604;52.496;13.456;2023-04-30T02:24:52;101727.63;;;4.94;87.89
25759;BME280;13604;52.496;13.456;2023-04-30T02:27:20;101704.91;;;4.80;87.41
25759;BME280;13604;52.496;13.456;2023-04-30T02:29:46;101705.94;;;4.72;88.32
25759;BME280;13604;52.496;13.456;2023-04-30T02:32:11;101730.72;;;4.80;88.79
25759;BME280;13604;52.496;13.456;2023-04-30T02:34:36;101730.09;;;4.83;88.57
25759;BME280;13604;52.496;13.456;2023-04-30T02:37:02;101722.22;;;4.71;88.63
25759;BME280;13604;52.496;13.456;2023-04-30T02:39:27;101730.72;;;4.80;88.67
25759;BME280;13604;52.496;13.456;2023-04-30T02:41:52;101713.81;;;4.63;89.01
25759;BME280;13604;52.496;13.456;2023-04-30T02:44:17;101714.72;;;4.53;89.48
25759;BME280;13604;52.496;13.456;2023-04-30T02:46:43;101725.72;;;4.51;90.20
25759;BME280;13604;52.496;13.456;2023-04-30T02:49:08;101706.84;;;4.41;89.96
25759;BME280;13604;52.496;13.456;2023-04-30T02:51:33;101739.22;;;4.58;90.02
25759;BME280;13604;52.496;13.456;2023-04-30T02:53:59;101656.25;;;4.02;90.81
25759;BME280;13604;52.496;13.456;2023-04-30T02:56:24;101724.91;;;4.41;90.95
25759;BME280;13604;52.496;13.456;2023-04-30T02:58:49;101736.16;;;4.52;90.41
25759;BME280;13604;52.496;13.456;2023-04-30T03:01:15;101710.19;;;4.30;90.63
25759;BME280;13604;52.496;13.456;2023-04-30T03:03:40;101761.28;;;4.55;90.99
25759;BME280;13604;52.496;13.456;2023-04-30T03:06:05;101756.81;;;4.63;90.66
25759;BME280;13604;52.496;13.456;2023-04-30T03:08:31;101733.53;;;4.42;90.89
25759;BME280;13604;52.496;13.456;2023-04-30T03:10:56;101739.63;;;4.42;90.83
25759;BME280;13604;52.496;13.456;2023-04-30T03:13:21;101745.28;;;4.38;91.42
25759;BME280;13604;52.496;13.456;2023-04-30T03:15:55;101778.94;;;4.40;91.92
25759;BME280;13604;52.496;13.456;2023-04-30T03:18:21;101747.56;;;4.25;92.46
25759;BME280;13604;52.496;13.456;2023-04-30T03:20:46;101742.91;;;4.21;92.56
25759;BME280;13604;52.496;13.456;2023-04-30T03:23:11;101750.28;;;4.27;92.57
25759;BME280;13604;52.496;13.456;2023-04-30T03:25:37;101685.06;;;3.88;92.62
25759;BME280;13604;52.496;13.456;2023-04-30T03:28:02;101745.00;;;4.25;92.37
25759;BME280;13604;52.496;13.456;2023-04-30T03:30:27;101771.06;;;4.28;92.43
25759;BME280;13604;52.496;13.456;2023-04-30T03:32:53;101759.78;;;4.17;92.75
25759;BME280;13604;52.496;13.456;2023-04-30T03:35:18;101781.59;;;4.21;92.82
25759;BME280;13604;52.496;13.456;2023-04-30T03:37:43;101787.16;;;4.26;92.83
25759;BME280;13604;52.496;13.456;2023-04-30T03:40:09;101770.22;;;4.09;92.59
25759;BME280;13604;52.496;13.456;2023-04-30T03:42:34;101789.22;;;4.19;93.09
25759;BME280;13604;52.496;13.456;2023-04-30T03:44:59;101793.44;;;4.19;93.61
25759;BME280;13604;52.496;13.456;2023-04-30T03:47:25;101762.97;;;4.04;93.29
25759;BME280;13604;52.496;13.456;2023-04-30T03:49:50;101799.88;;;4.14;93.13
25759;BME280;13604;52.496;13.456;2023-04-30T03:52:19;101772.97;;;3.91;93.50
25759;BME280;13604;52.496;13.456;2023-04-30T03:54:45;101761.47;;;3.77;93.94
25759;BME280;13604;52.496;13.456;2023-04-30T03:57:10;101773.97;;;3.83;94.48
25759;BME280;13604;52.496;13.456;2023-04-30T03:59:38;101782.22;;;3.79;94.76
25759;BME280;13604;52.496;13.456;2023-04-30T04:02:03;101789.75;;;3.96;94.53
25759;BME280;13604;52.496;13.456;2023-04-30T04:04:29;101778.22;;;3.82;94.51
25759;BME280;13604;52.496;13.456;2023-04-30T04:06:54;101815.66;;;3.98;94.31
25759;BME280;13604;52.496;13.456;2023-04-30T04:09:19;101816.44;;;3.97;94.00
25759;BME280;13604;52.496;13.456;2023-04-30T04:11:45;101786.56;;;3.80;94.22
25759;BME280;13604;52.496;13.456;2023-04-30T04:14:10;101819.16;;;3.98;93.87
25759;BME280;13604;52.496;13.456;2023-04-30T04:16:35;101791.72;;;3.80;94.21
25759;BME280;13604;52.496;13.456;2023-04-30T04:19:01;101808.66;;;3.86;94.46
25759;BME280;13604;52.496;13.456;2023-04-30T04:21:26;101816.41;;;3.86;95.01
25759;BME280;13604;52.496;13.456;2023-04-30T04:23:52;101794.69;;;3.74;94.83
25759;BME280;13604;52.496;13.456;2023-04-30T04:26:18;101825.59;;;3.93;94.79
25759;BME280;13604;52.496;13.456;2023-04-30T04:28:46;101840.25;;;3.94;94.83
25759;BME280;13604;52.496;13.456;2023-04-30T04:31:12;101824.00;;;3.85;94.28
25759;BME280;13604;52.496;13.456;2023-04-30T04:33:37;101825.03;;;3.87;94.39
25759;BME280;13604;52.496;13.456;2023-04-30T04:36:02;101796.22;;;3.72;94.20
25759;BME280;13604;52.496;13.456;2023-04-30T04:38:28;101818.41;;;3.80;94.76
25759;BME280;13604;52.496;13.456;2023-04-30T04:40:54;101843.25;;;3.99;94.31
25759;BME280;13604;52.496;13.456;2023-04-30T04:43:20;101849.84;;;4.05;93.61
25759;BME280;13604;52.496;13.456;2023-04-30T04:45:45;101829.28;;;3.86;93.85
25759;BME280;13604;52.496;13.456;2023-04-30T04:48:11;101860.03;;;4.04;93.92
25759;BME280;13604;52.496;13.456;2023-04-30T04:50:37;101860.72;;;4.12;92.81
25759;BME280;13604;52.496;13.456;2023-04-30T04:53:02;101832.81;;;3.97;92.72
25759;BME280;13604;52.496;13.456;2023-04-30T04:55:27;101836.78;;;3.94;92.66
25759;BME280;13604;52.496;13.456;2023-04-30T04:57:53;101844.41;;;4.02;92.08
25759;BME280;13604;52.496;13.456;2023-04-30T05:00:18;101847.78;;;4.01;92.09
25759;BME280;13604;52.496;13.456;2023-04-30T05:02:46;101882.66;;;4.17;92.56
25759;BME280;13604;52.496;13.456;2023-04-30T05:05:11;101881.34;;;4.12;92.65
25759;BME280;13604;52.496;13.456;2023-04-30T05:07:36;101859.53;;;4.08;92.14
25759;BME280;13604;52.496;13.456;2023-04-30T05:10:02;101872.47;;;4.18;91.48
25759;BME280;13604;52.496;13.456;2023-04-30T05:12:27;101861.75;;;4.14;91.17
25759;BME280;13604;52.496;13.456;2023-04-30T05:14:53;101894.03;;;4.29;91.08
25759;BME280;13604;52.496;13.456;2023-04-30T05:17:18;101871.72;;;4.19;90.72
25759;BME280;13604;52.496;13.456;2023-04-30T05:19:43;101874.69;;;4.24;90.42
25759;BME280;13604;52.496;13.456;2023-04-30T05:22:09;101881.94;;;4.28;90.71
25759;BME280;13604;52.496;13.456;2023-04-30T05:24:34;101890.09;;;4.33;90.74
25759;BME280;13604;52.496;13.456;2023-04-30T05:27:00;101876.78;;;4.28;90.58
25759;BME280;13604;52.496;13.456;2023-04-30T05:29:27;101908.88;;;4.51;89.96
25759;BME280;13604;52.496;13.456;2023-04-30T05:31:52;101871.31;;;4.44;88.71
25759;BME280;13604;52.496;13.456;2023-04-30T05:34:18;101884.84;;;4.52;88.83
25759;BME280;13604;52.496;13.456;2023-04-30T05:36:43;101862.03;;;4.46;87.67
25759;BME280;13604;52.496;13.456;2023-04-30T05:39:09;101907.63;;;4.76;87.48
25759;BME280;13604;52.496;13.456;2023-04-30T05:41:34;101882.09;;;4.69;87.32
25759;BME280;13604;52.496;13.456;2023-04-30T05:44:00;101898.13;;;4.96;86.47
25759;BME280;13604;52.496;13.456;2023-04-30T05:46:26;101902.94;;;5.02;84.82
25759;BME280;13604;52.496;13.456;2023-04-30T05:48:52;101910.44;;;5.09;85.06
25759;BME280;13604;52.496;13.456;2023-04-30T05:51:17;101902.56;;;5.07;83.72
25759;BME280;13604;52.496;13.456;2023-04-30T05:53:42;101904.13;;;5.15;83.86
25759;BME280;13604;52.496;13.456;2023-04-30T05:56:08;101912.88;;;5.28;82.97
25759;BME280;13604;52.496;13.456;2023-04-30T05:58:33;101919.13;;;5.30;83.00
25759;BME280;13604;52.496;13.456;2023-04-30T06:00:58;101905.53;;;5.32;82.59
25759;BME280;13604;52.496;13.456;2023-04-30T06:03:24;101930.88;;;5.47;81.75
25759;BME280;13604;52.496;13.456;2023-04-30T06:05:49;101937.72;;;5.57;82.00
25759;BME280;13604;52.496;13.456;2023-04-30T06:08:14;101921.31;;;5.66;81.48
25759;BME280;13604;52.496;13.456;2023-04-30T06:10:40;101937.44;;;5.84;79.90
25759;BME280;13604;52.496;13.456;2023-04-30T06:13:06;101889.00;;;5.61;78.67
25759;BME280;13604;52.496;13.456;2023-04-30T06:15:31;101915.72;;;5.72;79.19
25759;BME280;13604;52.496;13.456;2023-04-30T06:17:57;101933.84;;;5.82;79.31
25759;BME280;13604;52.496;13.456;2023-04-30T06:20:22;101937.44;;;5.95;79.23
25759;BME280;13604;52.496;13.456;2023-04-30T06:22:48;101929.44;;;6.12;79.90
25759;BME280;13604;52.496;13.456;2023-04-30T06:25:13;101925.16;;;6.13;78.49
25759;BME280;13604;52.496;13.456;2023-04-30T06:27:38;101949.88;;;6.52;81.86
25759;BME280;13604;52.496;13.456;2023-04-30T06:30:04;101908.66;;;6.33;76.85
25759;BME280;13604;52.496;13.456;2023-04-30T06:32:30;101951.97;;;6.68;76.33
25759;BME280;13604;52.496;13.456;2023-04-30T06:34:55;101948.25;;;6.74;75.13
25759;BME280;13604;52.496;13.456;2023-04-30T06:37:20;101938.66;;;6.73;75.19
25759;BME280;13604;52.496;13.456;2023-04-30T06:39:45;101926.59;;;6.74;72.19
25759;BME280;13604;52.496;13.456;2023-04-30T06:42:11;101946.84;;;6.90;73.64
25759;BME280;13604;52.496;13.456;2023-04-30T06:44:36;101947.03;;;7.03;73.05
25759;BME280;13604;52.496;13.456;2023-04-30T06:47:02;101938.38;;;7.03;73.35
25759;BME280;13604;52.496;13.456;2023-04-30T06:49:27;101957.28;;;7.24;72.11
25759;BME280;13604;52.496;13.456;2023-04-30T06:51:52;101958.41;;;7.27;71.83
25759;BME280;13604;52.496;13.456;2023-04-30T06:54:19;101943.13;;;7.30;71.92
25759;BME280;13604;52.496;13.456;2023-04-30T06:56:47;101949.72;;;7.49;71.12
25759;BME280;13604;52.496;13.456;2023-04-30T06:59:12;101925.69;;;7.51;71.18
25759;BME280;13604;52.496;13.456;2023-04-30T07:01:37;101909.72;;;7.57;69.84
25759;BME280;13604;52.496;13.456;2023-04-30T07:04:02;101930.47;;;7.69;67.29
25759;BME280;13604;52.496;13.456;2023-04-30T07:06:28;101925.63;;;7.62;67.87
25759;BME280;13604;52.496;13.456;2023-04-30T07:08:53;101920.50;;;7.51;67.99
25759;BME280;13604;52.496;13.456;2023-04-30T07:11:18;101915.69;;;7.56;67.20
25759;BME280;13604;52.496;13.456;2023-04-30T07:13:44;101926.53;;;7.74;68.86
25759;BME280;13604;52.496;13.456;2023-04-30T07:16:09;101941.94;;;7.95;69.54
25759;BME280;13604;52.496;13.456;2023-04-30T07:18:35;101916.31;;;7.99;66.37
25759;BME280;13604;52.496;13.456;2023-04-30T07:21:00;101939.56;;;8.21;70.34
25759;BME280;13604;52.496;13.456;2023-04-30T07:23:26;101966.34;;;8.44;66.40
25759;BME280;13604;52.496;13.456;2023-04-30T07:25:51;101956.19;;;8.47;71.24
25759;BME280;13604;52.496;13.456;2023-04-30T07:28:16;101930.44;;;8.62;73.78
25759;BME280;13604;52.496;13.456;2023-04-30T07:30:41;101954.94;;;9.02;73.19
25759;BME280;13604;52.496;13.456;2023-04-30T07:33:07;101957.00;;;9.32;67.85
25759;BME280;13604;52.496;13.456;2023-04-30T07:35:33;101941.78;;;9.63;60.93
25759;BME280;13604;52.496;13.456;2023-04-30T07:37:58;101943.63;;;10.56;61.62
25759;BME280;13604;52.496;13.456;2023-04-30T07:40:24;101951.75;;;11.31;60.94
25759;BME280;13604;52.496;13.456;2023-04-30T07:42:49;101934.25;;;11.43;53.15
25759;BME280;13604;52.496;13.456;2023-04-30T07:45:15;101935.22;;;12.03;53.91
25759;BME280;13604;52.496;13.456;2023-04-30T07:47:40;101942.13;;;11.58;54.29
25759;BME280;13604;52.496;13.456;2023-04-30T07:50:06;101939.94;;;11.81;51.05
25759;BME280;13604;52.496;13.456;2023-04-30T07:52:31;101954.53;;;11.77;50.87
25759;BME280;13604;52.496;13.456;2023-04-30T07:54:56;101924.56;;;12.30;49.66
25759;BME280;13604;52.496;13.456;2023-04-30T07:57:22;101964.19;;;13.00;48.33
25759;BME280;13604;52.496;13.456;2023-04-30T07:59:47;101972.00;;;13.48;48.68
25759;BME280;13604;52.496;13.456;2023-04-30T08:02:12;101944.03;;;13.31;44.27
25759;BME280;13604;52.496;13.456;2023-04-30T08:04:37;101967.88;;;13.20;44.92
25759;BME280;13604;52.496;13.456;2023-04-30T08:07:03;101959.97;;;13.35;43.78
25759;BME280;13604;52.496;13.456;2023-04-30T08:09:29;101937.13;;;13.82;43.49
25759;BME280;13604;52.496;13.456;2023-04-30T08:11:54;101971.44;;;14.05;44.16
25759;BME280;13604;52.496;13.456;2023-04-30T08:14:19;101966.56;;;15.02;43.02
25759;BME280;13604;52.496;13.456;2023-04-30T08:16:45;101945.66;;;15.43;42.62
25759;BME280;13604;52.496;13.456;2023-04-30T08:19:10;101936.88;;;15.42;41.31
25759;BME280;13604;52.496;13.456;2023-04-30T08:21:36;101954.91;;;15.35;41.43
25759;BME280;13604;52.496;13.456;2023-04-30T08:24:02;101950.19;;;16.07;40.50
25759;BME280;13604;52.496;13.456;2023-04-30T08:26:27;101956.88;;;16.20;38.66
25759;BME280;13604;52.496;13.456;2023-04-30T08:28:52;101948.59;;;15.51;36.69
25759;BME280;13604;52.496;13.456;2023-04-30T08:31:18;101965.19;;;15.11;37.91
25759;BME280;13604;52.496;13.456;2023-04-30T08:33:43;101968.84;;;15.73;37.13
25759;BME280;13604;52.496;13.456;2023-04-30T08:36:08;101974.66;;;16.92;37.14
25759;BME280;13604;52.496;13.456;2023-04-30T08:38:34;101946.47;;;17.60;35.01
25759;BME280;13604;52.496;13.456;2023-04-30T08:41:10;101978.34;;;18.45;33.08
25759;BME280;13604;52.496;13.456;2023-04-30T08:43:35;101977.63;;;18.78;33.82
25759;BME280;13604;52.496;13.456;2023-04-30T08:46:01;101953.97;;;18.81;31.59
25759;BME280;13604;52.496;13.456;2023-04-30T08:48:28;101946.47;;;19.88;31.49
25759;BME280;13604;52.496;13.456;2023-04-30T08:50:54;101956.31;;;20.28;30.93
25759;BME280;13604;52.496;13.456;2023-04-30T08:53:19;101979.63;;;20.10;29.61
25759;BME280;13604;52.496;13.456;2023-04-30T08:55:46;101929.44;;;19.44;30.55
25759;BME280;13604;52.496;13.456;2023-04-30T08:58:11;101969.97;;;20.47;31.00
25759;BME280;13604;52.496;13.456;2023-04-30T09:00:38;101975.50;;;20.57;29.09
25759;BME280;13604;52.496;13.456;2023-04-30T09:03:04;101952.91;;;21.11;29.79
25759;BME280;13604;52.496;13.456;2023-04-30T09:05:30;101961.66;;;21.99;27.66
25759;BME280;13604;52.496;13.456;2023-04-30T09:07:55;101969.59;;;23.09;26.22
25759;BME280;13604;52.496;13.456;2023-04-30T09:10:21;101975.91;;;23.19;25.99
25759;BME280;13604;52.496;13.456;2023-04-30T09:13:00;101971.88;;;23.51;25.84
25759;BME280;13604;52.496;13.456;2023-04-30T09:15:26;101976.75;;;23.91;25.28
25759;BME280;13604;52.496;13.456;2023-04-30T09:18:09;101976.50;;;24.66;24.53
25759;BME280;13604;52.496;13.456;2023-04-30T09:20:35;101964.06;;;24.68;23.44
25759;BME280;13604;52.496;13.456;2023-04-30T09:23:08;101973.09;;;24.92;23.08
25759;BME280;13604;52.496;13.456;2023-04-30T09:25:38;101982.81;;;24.80;22.13
25759;BME280;13604;52.496;13.456;2023-04-30T09:28:12;101980.50;;;25.84;22.16
25759;BME280;13604;52.496;13.456;2023-04-30T09:30:41;101977.00;;;26.10;21.61
25759;BME280;13604;52.496;13.456;2023-04-30T09:33:06;101972.53;;;26.64;21.04
25759;BME280;13604;52.496;13.456;2023-04-30T09:35:36;101968.09;;;26.60;21.63
25759;BME280;13604;52.496;13.456;2023-04-30T09:38:06;101977.00;;;26.30;21.21
25759;BME280;13604;52.496;13.456;2023-04-30T09:40:39;101984.06;;;25.63;20.88
25759;BME280;13604;52.496;13.456;2023-04-30T09:43:05;101981.84;;;24.69;20.50
25759;BME280;13604;52.496;13.456;2023-04-30T09:45:40;101981.78;;;23.66;22.53
25759;BME280;13604;52.496;13.456;2023-04-30T09:48:08;101977.91;;;24.22;23.23
25759;BME280;13604;52.496;13.456;2023-04-30T09:50:37;101962.66;;;25.37;21.87
25759;BME280;13604;52.496;13.456;2023-04-30T09:53:08;101960.91;;;25.49;22.60
25759;BME280;13604;52.496;13.456;2023-04-30T09:55:35;101947.56;;;25.56;20.37
25759;BME280;13604;52.496;13.456;2023-04-30T09:58:05;101966.31;;;26.00;19.98
25759;BME280;13604;52.496;13.456;2023-04-30T10:00:33;101944.59;;;24.80;20.31
25759;BME280;13604;52.496;13.456;2023-04-30T10:03:03;101959.88;;;25.21;20.54
25759;BME280;13604;52.496;13.456;2023-04-30T10:05:29;101958.25;;;25.65;20.32
25759;BME280;13604;52.496;13.456;2023-04-30T10:07:56;101956.50;;;25.87;20.34
25759;BME280;13604;52.496;13.456;2023-04-30T10:10:22;101943.16;;;25.93;19.92
25759;BME280;13604;52.496;13.456;2023-04-30T10:12:53;101961.84;;;26.75;19.63
25759;BME280;13604;52.496;13.456;2023-04-30T10:15:24;101966.31;;;26.47;19.39
25759;BME280;13604;52.496;13.456;2023-04-30T10:17:59;101959.09;;;26.90;19.71
25759;BME280;13604;52.496;13.456;2023-04-30T10:20:26;101935.16;;;26.50;18.74
25759;BME280;13604;52.496;13.456;2023-04-30T10:22:52;101948.44;;;26.84;20.53
25759;BME280;13604;52.496;13.456;2023-04-30T10:25:18;101942.00;;;27.38;19.00
25759;BME280;13604;52.496;13.456;2023-04-30T10:27:44;101956.31;;;27.26;17.63
25759;BME280;13604;52.496;13.456;2023-04-30T10:30:10;101919.41;;;27.80;17.65
25759;BME280;13604;52.496;13.456;2023-04-30T10:35:25;101949.72;;;29.51;17.51
25759;BME280;13604;52.496;13.456;2023-04-30T10:37:56;101939.75;;;28.93;16.82
25759;BME280;13604;52.496;13.456;2023-04-30T10:40:25;101945.09;;;28.94;16.71
25759;BME280;13604;52.496;13.456;2023-04-30T10:42:52;101924.19;;;28.43;17.45
25759;BME280;13604;52.496;13.456;2023-04-30T10:45:33;101939.75;;;28.91;17.15
25759;BME280;13604;52.496;13.456;2023-04-30T10:48:01;101944.94;;;29.70;17.38
25759;BME280;13604;52.496;13.456;2023-04-30T10:50:28;101929.34;;;30.49;16.88
25759;BME280;13604;52.496;13.456;2023-04-30T10:53:03;101928.47;;;31.34;15.87
25759;BME280;13604;52.496;13.456;2023-04-30T10:55:30;101935.91;;;31.99;15.55
25759;BME280;13604;52.496;13.456;2023-04-30T10:57:57;101936.22;;;30.14;16.42
25759;BME280;13604;52.496;13.456;2023-04-30T11:00:29;101881.75;;;28.03;16.63
25759;BME280;13604;52.496;13.456;2023-04-30T11:02:57;101941.06;;;28.58;16.09
25759;BME280;13604;52.496;13.456;2023-04-30T11:05:37;101931.66;;;28.11;17.47
25759;BME280;13604;52.496;13.456;2023-04-30T11:08:03;101932.53;;;29.63;16.56
25759;BME280;13604;52.496;13.456;2023-04-30T11:10:32;101926.34;;;30.64;16.39
25759;BME280;13604;52.496;13.456;2023-04-30T11:13:02;101908.09;;;29.83;16.81
25759;BME280;13604;52.496;13.456;2023-04-30T11:15:39;101925.34;;;31.13;15.63
25759;BME280;13604;52.496;13.456;2023-04-30T11:18:08;101918.09;;;30.73;15.25
25759;BME280;13604;52.496;13.456;2023-04-30T11:20:38;101894.69;;;30.78;15.42
25759;BME280;13604;52.496;13.456;2023-04-30T11:23:09;101916.78;;;31.74;16.27
25759;BME280;13604;52.496;13.456;2023-04-30T11:25:39;101903.13;;;30.12;15.45
25759;BME280;13604;52.496;13.456;2023-04-30T11:28:05;101870.31;;;29.40;15.78
25759;BME280;13604;52.496;13.456;2023-04-30T11:30:31;101916.13;;;29.85;16.76
25759;BME280;13604;52.496;13.456;2023-04-30T11:32:58;101914.69;;;30.65;15.54
25759;BME280;13604;52.496;13.456;2023-04-30T11:35:24;101893.69;;;30.39;16.18
25759;BME280;13604;52.496;13.456;2023-04-30T11:37:53;101886.16;;;31.01;14.59
25759;BME280;13604;52.496;13.456;2023-04-30T11:40:19;101906.50;;;31.90;15.67
25759;BME280;13604;52.496;13.456;2023-04-30T11:42:45;101893.53;;;30.90;15.56
25759;BME280;13604;52.496;13.456;2023-04-30T11:45:16;101900.19;;;30.72;15.17
25759;BME280;13604;52.496;13.456;2023-04-30T11:47:45;101914.47;;;31.59;14.69
25759;BME280;13604;52.496;13.456;2023-04-30T11:50:15;101918.66;;;32.06;14.36
25759;BME280;13604;52.496;13.456;2023-04-30T11:52:41;101905.88;;;31.79;14.73
25759;BME280;13604;52.496;13.456;2023-04-30T11:55:18;101897.75;;;31.43;15.27
25759;BME280;13604;52.496;13.456;2023-04-30T11:57:46;101897.53;;;32.57;14.54
25759;BME280;13604;52.496;13.456;2023-04-30T12:00:14;101897.28;;;31.63;15.53
25759;BME280;13604;52.496;13.456;2023-04-30T12:02:41;101867.75;;;32.28;14.33
25759;BME280;13604;52.496;13.456;2023-04-30T12:07:55;101876.53;;;30.88;14.68
25759;BME280;13604;52.496;13.456;2023-04-30T12:10:21;101889.84;;;30.04;15.55
25759;BME280;13604;52.496;13.456;2023-04-30T12:12:48;101906.06;;;30.48;15.77
25759;BME280;13604;52.496;13.456;2023-04-30T12:15:18;101898.53;;;31.85;14.79
25759;BME280;13604;52.496;13.456;2023-04-30T12:17:44;101893.06;;;33.45;14.76
25759;BME280;13604;52.496;13.456;2023-04-30T12:20:11;101910.03;;;34.31;13.23
25759;BME280;13604;52.496;13.456;2023-04-30T12:22:37;101888.28;;;34.34;13.28
25759;BME280;13604;52.496;13.456;2023-04-30T12:25:07;101902.16;;;34.97;13.51
25759;BME280;13604;52.496;13.456;2023-04-30T12:27:35;101877.16;;;35.36;12.65
25759;BME280;13604;52.496;13.456;2023-04-30T12:30:07;101889.09;;;36.17;12.67
25759;BME280;13604;52.496;13.456;2023-04-30T12:32:44;101866.06;;;37.05;12.48
25759;BME280;13604;52.496;13.456;2023-04-30T12:35:14;101864.00;;;35.49;12.87
25759;BME280;13604;52.496;13.456;2023-04-30T12:37:44;101873.75;;;34.11;13.82
25759;BME280;13604;52.496;13.456;2023-04-30T12:40:11;101886.38;;;35.32;13.04
25759;BME280;13604;52.496;13.456;2023-04-30T12:42:37;101878.06;;;35.13;13.77
25759;BME280;13604;52.496;13.456;2023-04-30T12:45:02;101866.13;;;35.18;13.54
25759;BME280;13604;52.496;13.456;2023-04-30T12:47:28;101872.94;;;34.34;13.34
25759;BME280;13604;52.496;13.456;2023-04-30T12:49:54;101873.22;;;33.19;14.09
25759;BME280;13604;52.496;13.456;2023-04-30T12:52:23;101857.09;;;31.91;15.66
25759;BME280;13604;52.496;13.456;2023-04-30T12:54:48;101850.88;;;33.43;14.89
25759;BME280;13604;52.496;13.456;2023-04-30T12:57:13;101846.59;;;34.39;14.14
25759;BME280;13604;52.496;13.456;2023-04-30T12:59:55;101837.91;;;36.30;13.14
25759;BME280;13604;52.496;13.456;2023-04-30T13:02:23;101870.91;;;36.98;12.96